Muckle Flugga, United Kingdom

11:48 AM BST on September 04, 2015 (GMT +0100)
Scatsta | | Change Station
CLOSE
Current Station
Airport
Location: Sella Ness,
Elevation: 72 ft
Nearby Weather Stations

Elev 72 ft 60.43 °N, 1.30 °W | Updated 28 minutes ago

Light Drizzle
Light Drizzle Mist
54 °F
Feels Like 54 °F
N
10
Wind Variable Wind from WSW

Today
High -- | Low -- °F
--% Chance of Precip.
Yesterday
High -- | Low -- °F
Precip. -- in
6:02 AM 8:01 PM
Waning Gibbous, 60% visible
Pressure 29.89 in
Visibility 0.7 miles
Clouds Overcast 300 ft
Dew Point 54 °F
Humidity 100%
Rainfall 0.00 in
Snow Depth Not available.
UV 1 out of 12
Pollen Not available.
Air Quality Not available.
Flu Activity Not available.
METAR EGPM 041020Z 25009KT 1200 -DZ BR OVC003 12/12 Q1012 BECMG 6000 BKN006
Pressure 29.89 in
Visibility 0.7 miles
Clouds Overcast 300 ft
Dew Point 54 °F
Humidity 100%
Rainfall 0.00 in
Snow Depth Not available.
UV 1 out of 12
Pollen Not available.
Air Quality Not available.
Flu Activity Not available.
METAR EGPM 041020Z 25009KT 1200 -DZ BR OVC003 12/12 Q1012 BECMG 6000 BKN006

10-Day Weather Forecast

×

Almanac

Astronomy

Sep. 04, 2015 Rise Set
Actual Time
Civil Twilight
Nautical Twilight
Astronomical Twilight
Moon
Length of Visible Light
Length of Day
Tomorrow will be .
, % of the Moon is Illuminated

Today's Extremes

Country Highs Country Lows

Community

WunderPhotos

Upload Photos

1,852,146 photos uploaded!

WunderBlogs® & News

Nearby

Air Quality

  Air Quality AQ Index Pollutant
Not available.

Snow Depth

Station Depth Elevation

Earthquake Activity

City Distance Mag. Time & Date
Minimum magnitude displayed is 2.5.

Coastal Water Temperatures

Place Temperature

Stations

Nearby Weather Stations

Station Location Temp. Windchill Dew Point Humidity Wind Precip. Elev Updated Type